createdAt,value
2023-02-15T00:00:13.003Z,1.23
2023-02-15T00:01:15.800Z,1.13
2023-02-15T00:02:17.689Z,1.08
2023-02-15T00:03:19.646Z,1.43
2023-02-15T00:04:24.220Z,1.18
2023-02-15T00:05:26.629Z,1.02
2023-02-15T00:06:29.791Z,1.24
2023-02-15T00:07:31.735Z,1.08
2023-02-15T00:08:34.835Z,1.30
2023-02-15T00:09:36.740Z,1.02
2023-02-15T00:10:38.814Z,1.10
2023-02-15T00:11:42.293Z,1.37
2023-02-15T00:12:44.561Z,0.91
2023-02-15T00:13:46.674Z,1.19
2023-02-15T00:14:48.858Z,0.91
2023-02-15T00:15:50.818Z,1.48
2023-02-15T00:16:53.517Z,1.29
2023-02-15T00:17:57.877Z,0.99
2023-02-15T00:18:59.914Z,1.29
2023-02-15T00:20:02.246Z,1.39
2023-02-15T00:21:08.170Z,1.09
2023-02-15T00:22:10.384Z,1.09
2023-02-15T00:23:12.345Z,1.09
2023-02-15T00:24:17.311Z,1.02
2023-02-15T00:25:19.238Z,0.96
2023-02-15T00:26:21.329Z,0.98
2023-02-15T00:27:24.380Z,0.92
2023-02-15T00:28:26.296Z,0.78
2023-02-15T00:29:28.473Z,0.88
2023-02-15T00:30:31.421Z,0.99
2023-02-15T00:31:34.458Z,0.89
2023-02-15T00:32:36.960Z,0.58
2023-02-15T00:33:39.901Z,0.99
2023-02-15T00:34:42.092Z,0.81
2023-02-15T00:35:44.090Z,1.12
2023-02-15T00:36:46.702Z,0.59
2023-02-15T00:37:48.596Z,1.14
2023-02-15T00:38:51.282Z,0.88
2023-02-15T00:39:53.295Z,0.86
2023-02-15T00:40:59.229Z,1.09
2023-02-15T00:42:01.204Z,0.69
2023-02-15T00:43:03.170Z,0.71
2023-02-15T00:44:06.359Z,0.86
2023-02-15T00:45:10.377Z,0.86
2023-02-15T00:46:12.815Z,0.83
2023-02-15T00:47:14.903Z,0.68
2023-02-15T00:48:17.682Z,0.75
2023-02-15T00:49:19.679Z,0.65
2023-02-15T00:50:23.752Z,0.87
2023-02-15T00:51:26.258Z,0.61
2023-02-15T00:52:28.167Z,1.01
2023-02-15T00:53:30.419Z,0.56
2023-02-15T00:54:32.337Z,1.07
2023-02-15T00:55:34.223Z,0.71
2023-02-15T00:56:36.320Z,0.77
2023-02-15T00:57:38.209Z,0.93
2023-02-15T00:58:40.212Z,0.91
2023-02-15T00:59:42.214Z,0.87
2023-02-15T01:00:46.666Z,0.58
2023-02-15T01:01:48.677Z,0.74
2023-02-15T01:02:50.577Z,0.80
2023-02-15T01:03:53.013Z,0.80
2023-02-15T01:04:56.098Z,0.57
2023-02-15T01:05:58.320Z,0.83
2023-02-15T01:07:01.784Z,0.70
2023-02-15T01:08:04.313Z,0.69
2023-02-15T01:09:06.484Z,0.64
2023-02-15T01:10:09.163Z,0.94
2023-02-15T01:11:14.232Z,0.87
2023-02-15T01:12:16.166Z,0.74
2023-02-15T01:13:18.162Z,0.72
2023-02-15T01:14:20.039Z,0.88
2023-02-15T01:15:22.742Z,0.65
2023-02-15T01:16:27.315Z,0.48
2023-02-15T01:17:30.776Z,0.79
2023-02-15T01:18:34.492Z,0.53
2023-02-15T01:19:37.362Z,0.71
2023-02-15T01:20:40.594Z,0.89
2023-02-15T01:21:42.486Z,0.63
2023-02-15T01:22:44.577Z,0.55
2023-02-15T01:23:47.176Z,0.79
2023-02-15T01:24:49.631Z,0.79
2023-02-15T01:25:51.620Z,0.93
2023-02-15T01:26:53.603Z,0.48
2023-02-15T01:27:55.516Z,0.80
2023-02-15T01:28:57.388Z,0.68
2023-02-15T01:30:00.352Z,0.53
2023-02-15T01:31:10.461Z,0.60
2023-02-15T01:32:13.295Z,0.51
2023-02-15T01:33:15.277Z,0.83
2023-02-15T01:34:17.179Z,0.72
2023-02-15T01:35:19.339Z,0.63
2023-02-15T01:36:21.317Z,0.58
2023-02-15T01:37:23.198Z,0.83
2023-02-15T01:38:25.240Z,0.63
2023-02-15T01:39:27.418Z,0.52
2023-02-15T01:40:29.708Z,0.55
2023-02-15T01:41:31.577Z,0.75
2023-02-15T01:42:34.361Z,0.60
2023-02-15T01:43:45.252Z,0.46
2023-02-15T01:44:56.323Z,0.52
2023-02-15T01:45:58.731Z,0.62
2023-02-15T01:47:01.191Z,0.75
2023-02-15T01:48:21.981Z,0.75
2023-02-15T01:49:27.607Z,0.44
2023-02-15T01:50:38.822Z,0.56
2023-02-15T01:51:44.624Z,0.39
2023-02-15T01:53:02.335Z,0.68
2023-02-15T01:56:33.940Z,0.63
2023-02-15T01:57:37.019Z,0.94
2023-02-15T01:58:39.350Z,0.60
2023-02-15T01:59:44.568Z,0.61
2023-02-15T02:00:48.106Z,0.61
2023-02-15T02:01:52.983Z,0.75
2023-02-15T02:02:57.299Z,0.57
2023-02-15T02:04:14.859Z,0.60
2023-02-15T02:05:17.279Z,0.76
2023-02-15T02:06:26.198Z,0.56
2023-02-15T02:07:31.258Z,0.70
2023-02-15T02:08:34.500Z,0.68
2023-02-15T02:09:37.581Z,0.84
2023-02-15T02:10:39.716Z,0.51
2023-02-15T02:11:43.985Z,0.73
2023-02-15T02:12:48.317Z,0.81
2023-02-15T02:13:52.351Z,0.68
2023-02-15T02:14:55.870Z,0.69
2023-02-15T02:18:33.645Z,0.68
2023-02-15T02:20:06.564Z,0.74
2023-02-15T02:21:12.246Z,0.61
2023-02-15T02:22:26.912Z,0.73
2023-02-15T02:26:36.947Z,0.81
2023-02-15T02:28:03.112Z,0.64
2023-02-15T02:29:11.666Z,0.64
2023-02-15T02:30:18.178Z,0.91
2023-02-15T02:31:38.924Z,1.01
2023-02-15T02:34:15.290Z,1.08
2023-02-15T02:35:32.640Z,1.07
2023-02-15T02:36:53.218Z,0.72
2023-02-15T02:38:02.208Z,1.10
2023-02-15T02:39:19.916Z,0.69
2023-02-15T02:40:25.751Z,0.79
2023-02-15T02:41:57.679Z,0.66
2023-02-15T02:43:18.353Z,0.62
2023-02-15T02:44:24.059Z,0.90
2023-02-15T02:45:35.452Z,0.67
2023-02-15T02:47:57.448Z,0.52
2023-02-15T02:48:59.711Z,0.76
2023-02-15T02:50:05.772Z,0.90
2023-02-15T02:51:08.037Z,0.59
2023-02-15T02:52:40.066Z,0.61
2023-02-15T02:53:42.237Z,0.62
2023-02-15T02:54:44.642Z,0.75
2023-02-15T02:55:55.776Z,0.62
2023-02-15T02:58:06.860Z,0.58
2023-02-15T02:59:18.249Z,0.78
2023-02-15T03:01:31.358Z,0.66
2023-02-15T03:02:37.118Z,0.67
2023-02-15T03:03:48.230Z,0.55
2023-02-15T03:04:54.149Z,0.66
2023-02-15T03:06:00.160Z,0.65
2023-02-15T03:07:09.901Z,0.77
2023-02-15T03:08:15.589Z,0.67
2023-02-15T03:09:27.487Z,0.99
2023-02-15T03:10:30.452Z,0.59
2023-02-15T03:11:33.037Z,0.73
2023-02-15T03:12:37.768Z,0.90
2023-02-15T03:13:40.801Z,0.73
2023-02-15T03:14:47.754Z,0.67
2023-02-15T03:15:51.382Z,0.70
2023-02-15T03:16:55.349Z,0.63
2023-02-15T03:18:01.222Z,0.68
2023-02-15T03:19:09.866Z,0.56
2023-02-15T03:20:22.795Z,0.65
2023-02-15T03:21:34.381Z,0.86
2023-02-15T03:23:40.500Z,0.62
2023-02-15T03:24:46.907Z,0.51
2023-02-15T03:28:18.491Z,0.67
2023-02-15T03:29:24.229Z,0.72
2023-02-15T03:30:28.707Z,0.81
2023-02-15T03:31:34.517Z,0.81
2023-02-15T03:32:39.693Z,1.00
2023-02-15T03:33:45.455Z,0.60
2023-02-15T03:34:47.907Z,0.79
2023-02-15T03:36:08.959Z,0.83
2023-02-15T03:37:17.789Z,0.63
2023-02-15T03:38:27.353Z,0.71
2023-02-15T03:39:49.860Z,0.58
2023-02-15T03:40:55.921Z,0.58
2023-02-15T03:42:07.470Z,0.77
2023-02-15T03:44:31.239Z,0.55
2023-02-15T03:45:35.566Z,0.92
2023-02-15T03:46:51.719Z,0.90
2023-02-15T03:47:56.774Z,0.53
2023-02-15T03:49:05.606Z,0.50
2023-02-15T03:50:15.562Z,0.56
2023-02-15T03:51:21.549Z,0.81
2023-02-15T03:52:27.234Z,0.72
2023-02-15T03:53:30.622Z,0.64
2023-02-15T03:54:34.727Z,0.55
2023-02-15T03:55:38.430Z,0.69
2023-02-15T03:56:42.525Z,0.67
2023-02-15T03:57:45.151Z,0.84
2023-02-15T03:58:47.451Z,1.02
2023-02-15T03:59:49.629Z,0.93
2023-02-15T04:01:00.425Z,0.97
2023-02-15T04:02:12.115Z,0.77
2023-02-15T04:04:37.764Z,0.95
2023-02-15T04:05:40.603Z,0.78
2023-02-15T04:06:42.604Z,0.95
2023-02-15T04:07:47.716Z,0.85
2023-02-15T04:08:49.634Z,0.86
2023-02-15T04:09:51.519Z,1.24
2023-02-15T04:10:53.583Z,0.85
2023-02-15T04:11:55.692Z,1.32
2023-02-15T04:12:57.585Z,1.01
2023-02-15T04:14:00.152Z,0.96
2023-02-15T04:15:02.400Z,0.78
2023-02-15T04:16:05.757Z,1.05
2023-02-15T04:17:09.738Z,0.84
2023-02-15T04:18:32.793Z,0.79
2023-02-15T04:19:35.194Z,0.72
2023-02-15T04:20:37.317Z,0.72
2023-02-15T04:21:39.268Z,0.75
2023-02-15T04:22:41.454Z,1.05
2023-02-15T04:23:43.491Z,0.95
2023-02-15T04:24:45.474Z,0.69
2023-02-15T04:25:48.244Z,0.62
2023-02-15T04:26:50.679Z,0.76
2023-02-15T04:27:54.510Z,0.59
2023-02-15T04:28:56.417Z,0.69
2023-02-15T04:29:58.354Z,0.71
2023-02-15T04:31:01.818Z,0.70
2023-02-15T04:32:04.127Z,0.95
2023-02-15T04:33:06.280Z,0.95
2023-02-15T04:34:08.163Z,0.83
2023-02-15T04:35:10.906Z,0.87
2023-02-15T04:36:13.232Z,1.30
2023-02-15T04:37:15.132Z,0.72
2023-02-15T04:38:17.015Z,0.48
2023-02-15T04:39:19.553Z,0.75
2023-02-15T04:40:21.537Z,0.89
2023-02-15T04:41:23.556Z,0.93
2023-02-15T04:42:26.298Z,1.20
2023-02-15T04:43:28.621Z,1.10
2023-02-15T04:44:30.485Z,1.18
2023-02-15T04:45:32.390Z,1.07
2023-02-15T04:46:34.704Z,0.77
2023-02-15T04:47:36.668Z,1.07
2023-02-15T04:48:38.732Z,1.16
2023-02-15T04:49:40.646Z,0.90
2023-02-15T04:50:44.951Z,1.24
2023-02-15T04:51:49.036Z,1.02
2023-02-15T04:52:50.968Z,0.78
2023-02-15T04:53:53.248Z,0.85
2023-02-15T04:54:55.251Z,1.13
2023-02-15T04:55:57.207Z,0.95
2023-02-15T04:56:59.452Z,1.21
2023-02-15T04:58:01.425Z,0.84
2023-02-15T04:59:04.259Z,0.88
2023-02-15T05:00:08.043Z,0.72
2023-02-15T05:01:10.765Z,1.01
2023-02-15T05:02:12.851Z,1.17
2023-02-15T05:03:14.789Z,0.89
2023-02-15T05:04:16.779Z,0.99
2023-02-15T05:05:18.856Z,0.88
2023-02-15T05:06:21.828Z,0.91
2023-02-15T05:07:23.813Z,0.92
2023-02-15T05:08:25.989Z,1.00
2023-02-15T05:09:27.952Z,1.15
2023-02-15T05:10:30.046Z,1.08
2023-02-15T05:11:32.106Z,1.23
2023-02-15T05:12:34.463Z,1.13
2023-02-15T05:13:36.672Z,1.47
2023-02-15T05:14:38.957Z,1.81
2023-02-15T05:15:41.042Z,0.98
2023-02-15T05:16:43.630Z,1.09
2023-02-15T05:17:45.794Z,1.07
2023-02-15T05:18:47.874Z,1.34
2023-02-15T05:19:49.762Z,1.58
2023-02-15T05:20:51.902Z,1.55
2023-02-15T05:21:53.945Z,1.39
2023-02-15T05:22:56.166Z,1.17
2023-02-15T05:23:58.976Z,1.06
2023-02-15T05:25:01.559Z,1.59
2023-02-15T05:26:04.175Z,1.52
2023-02-15T05:27:06.726Z,1.73
2023-02-15T05:28:10.864Z,1.77
2023-02-15T05:29:13.250Z,1.91
2023-02-15T05:30:15.972Z,2.13
2023-02-15T05:31:19.845Z,1.99
2023-02-15T05:32:22.328Z,1.62
2023-02-15T05:33:24.536Z,1.39
2023-02-15T05:34:26.438Z,1.26
2023-02-15T05:35:28.309Z,1.87
2023-02-15T05:36:30.472Z,1.24
2023-02-15T05:37:32.499Z,1.78
2023-02-15T05:38:35.046Z,1.33
2023-02-15T05:39:36.983Z,1.26
2023-02-15T05:40:38.962Z,1.54
2023-02-15T05:41:41.612Z,1.50
2023-02-15T05:42:43.927Z,1.57
2023-02-15T05:43:46.748Z,1.69
2023-02-15T05:44:49.032Z,1.28
2023-02-15T05:45:54.001Z,1.19
2023-02-15T05:46:56.451Z,1.32
2023-02-15T05:47:58.454Z,1.27
2023-02-15T05:49:00.455Z,1.83
2023-02-15T05:50:03.809Z,1.35
2023-02-15T05:51:09.070Z,1.53
2023-02-15T05:52:11.096Z,1.29
2023-02-15T05:53:13.130Z,1.33
2023-02-15T05:54:15.105Z,1.71
2023-02-15T05:55:17.457Z,1.54
2023-02-15T05:56:20.492Z,1.21
2023-02-15T05:57:23.411Z,1.12
2023-02-15T05:58:32.045Z,1.71
2023-02-15T05:59:34.119Z,1.33
2023-02-15T06:00:38.181Z,1.17
2023-02-15T06:01:40.285Z,1.09
2023-02-15T06:02:42.274Z,1.27
2023-02-15T06:03:46.802Z,1.36
2023-02-15T06:04:48.865Z,0.91
2023-02-15T06:05:50.938Z,1.12
2023-02-15T06:06:53.089Z,1.09
2023-02-15T06:07:55.060Z,1.31
2023-02-15T06:08:57.239Z,1.05
2023-02-15T06:09:59.131Z,0.95
2023-02-15T06:11:01.797Z,1.54
2023-02-15T06:12:04.555Z,1.09
2023-02-15T06:13:07.315Z,1.07
2023-02-15T06:14:10.050Z,1.57
2023-02-15T06:15:12.169Z,1.32
2023-02-15T06:16:16.097Z,1.27
2023-02-15T06:17:18.166Z,1.35
2023-02-15T06:18:20.480Z,1.61
2023-02-15T06:19:22.404Z,1.88
2023-02-15T06:20:25.455Z,1.61
2023-02-15T06:21:27.817Z,1.39
2023-02-15T06:22:29.803Z,1.53
2023-02-15T06:23:31.701Z,1.57
2023-02-15T06:24:33.608Z,1.67
2023-02-15T06:25:36.906Z,1.61
2023-02-15T06:26:39.901Z,1.51
2023-02-15T06:27:42.783Z,1.49
2023-02-15T06:28:44.992Z,1.48
2023-02-15T06:29:46.901Z,1.59
2023-02-15T06:30:48.936Z,2.05
2023-02-15T06:31:51.041Z,2.13
2023-02-15T06:32:53.295Z,1.67
2023-02-15T06:33:55.393Z,1.10
2023-02-15T06:34:57.282Z,1.37
2023-02-15T06:36:00.111Z,1.09
2023-02-15T06:37:02.467Z,1.19
2023-02-15T06:38:04.386Z,1.81
2023-02-15T06:39:07.917Z,1.47
2023-02-15T06:40:10.937Z,1.75
2023-02-15T06:41:13.092Z,1.05
2023-02-15T06:42:14.969Z,1.27
2023-02-15T06:43:17.039Z,1.23
2023-02-15T06:44:18.930Z,1.41
2023-02-15T06:45:21.011Z,1.43
2023-02-15T06:46:23.882Z,1.27
2023-02-15T06:47:26.209Z,1.21
2023-02-15T06:48:28.524Z,1.30
2023-02-15T06:49:30.524Z,1.09
2023-02-15T06:50:32.905Z,1.31
2023-02-15T06:51:34.798Z,1.29
2023-02-15T06:52:38.918Z,0.94
2023-02-15T06:53:40.864Z,1.10
2023-02-15T06:54:42.770Z,1.04
2023-02-15T06:55:44.742Z,0.79
2023-02-15T06:56:46.727Z,1.23
2023-02-15T06:57:50.886Z,1.13
2023-02-15T06:58:53.186Z,1.22
2023-02-15T06:59:55.199Z,1.27
2023-02-15T07:00:57.453Z,1.16
2023-02-15T07:01:59.452Z,1.19
2023-02-15T07:03:01.318Z,1.15
2023-02-15T07:04:04.535Z,0.94
2023-02-15T07:05:06.773Z,1.12
2023-02-15T07:06:09.358Z,1.26
2023-02-15T07:07:12.810Z,1.40
2023-02-15T07:08:14.784Z,1.09
2023-02-15T07:09:16.677Z,0.85
2023-02-15T07:10:19.182Z,0.77
2023-02-15T07:11:21.078Z,0.93
2023-02-15T07:12:23.804Z,1.19
2023-02-15T07:13:25.788Z,1.13
2023-02-15T07:14:29.045Z,1.35
2023-02-15T07:15:31.127Z,1.53
2023-02-15T07:16:33.105Z,1.55
2023-02-15T07:17:36.889Z,1.19
2023-02-15T07:18:40.080Z,1.07
2023-02-15T07:19:42.135Z,0.90
2023-02-15T07:20:44.174Z,1.09
2023-02-15T07:21:46.085Z,0.99
2023-02-15T07:22:48.540Z,1.09
2023-02-15T07:23:50.424Z,0.98
2023-02-15T07:24:52.300Z,0.79
2023-02-15T07:25:58.872Z,0.85
2023-02-15T07:27:01.893Z,1.31
2023-02-15T07:28:04.876Z,1.05
2023-02-15T07:29:07.784Z,1.24
2023-02-15T07:30:13.246Z,0.87
2023-02-15T07:31:15.447Z,0.82
2023-02-15T07:32:17.851Z,1.04
2023-02-15T07:33:20.303Z,0.96
2023-02-15T07:34:22.228Z,1.25
2023-02-15T07:35:24.659Z,1.40
2023-02-15T07:36:27.082Z,1.09
2023-02-15T07:37:29.124Z,1.16
2023-02-15T07:38:34.581Z,1.19
2023-02-15T07:39:36.652Z,1.23
2023-02-15T07:40:39.229Z,1.55
2023-02-15T07:41:41.250Z,1.39
2023-02-15T07:42:43.143Z,1.12
2023-02-15T07:43:46.506Z,0.89
2023-02-15T07:44:49.733Z,1.11
2023-02-15T07:45:51.737Z,0.82
2023-02-15T07:46:54.188Z,1.33
2023-02-15T07:47:56.452Z,0.94
2023-02-15T07:48:58.417Z,1.14
2023-02-15T07:50:00.316Z,1.61
2023-02-15T07:51:05.144Z,1.51
2023-02-15T07:52:07.522Z,1.34
2023-02-15T07:53:09.628Z,1.23
2023-02-15T07:54:11.770Z,1.40
2023-02-15T07:55:14.059Z,1.08
2023-02-15T07:56:16.282Z,1.37
2023-02-15T07:57:18.311Z,1.31
2023-02-15T07:58:20.292Z,1.32
2023-02-15T07:59:22.181Z,1.63
2023-02-15T08:00:24.501Z,1.19
2023-02-15T08:01:30.062Z,1.21
2023-02-15T08:02:32.144Z,0.60
2023-02-15T08:03:34.751Z,0.74
2023-02-15T08:04:36.746Z,0.90
2023-02-15T08:05:41.129Z,1.21
2023-02-15T08:06:43.169Z,1.05
2023-02-15T08:07:45.152Z,1.13
2023-02-15T08:08:47.209Z,0.86
2023-02-15T08:09:49.184Z,1.32
2023-02-15T08:10:52.174Z,1.23
2023-02-15T08:11:54.113Z,1.34
2023-02-15T08:12:56.087Z,0.92
2023-02-15T08:14:00.873Z,1.13
2023-02-15T08:15:03.274Z,1.61
2023-02-15T08:16:06.299Z,1.51
2023-02-15T08:17:08.318Z,1.29
2023-02-15T08:18:10.240Z,1.27
2023-02-15T08:19:21.432Z,1.17
2023-02-15T08:20:24.017Z,0.85
2023-02-15T08:21:28.246Z,0.96
2023-02-15T08:22:30.285Z,1.01
2023-02-15T08:23:32.174Z,1.02
2023-02-15T08:24:36.567Z,1.06
2023-02-15T08:25:38.493Z,0.99
2023-02-15T08:26:42.528Z,1.09
2023-02-15T08:27:44.644Z,1.01
2023-02-15T08:28:46.686Z,0.90
2023-02-15T08:29:48.585Z,1.07
2023-02-15T08:30:50.810Z,1.03
2023-02-15T08:32:01.752Z,1.23
2023-02-15T08:33:03.865Z,1.56
2023-02-15T08:34:06.803Z,1.23
2023-02-15T08:35:08.900Z,1.22
2023-02-15T08:36:18.044Z,1.60
2023-02-15T08:37:20.050Z,1.11
2023-02-15T08:38:21.945Z,1.01
2023-02-15T08:39:24.329Z,1.00
2023-02-15T08:40:26.524Z,0.90
2023-02-15T08:41:32.055Z,1.45
2023-02-15T08:42:34.897Z,1.66
2023-02-15T08:43:37.237Z,1.91
2023-02-15T08:44:39.126Z,2.03
2023-02-15T08:45:42.089Z,1.57
2023-02-15T08:46:45.487Z,1.78
2023-02-15T08:47:47.470Z,1.30
2023-02-15T08:48:51.105Z,1.12
2023-02-15T08:49:53.030Z,1.15
2023-02-15T08:50:55.026Z,1.52
2023-02-15T08:51:57.140Z,1.86
2023-02-15T08:52:59.142Z,1.42
2023-02-15T08:54:05.278Z,1.13
2023-02-15T08:55:07.752Z,1.07
2023-02-15T08:56:10.967Z,0.93
2023-02-15T08:57:12.987Z,0.88
2023-02-15T08:58:14.983Z,1.03
2023-02-15T08:59:19.867Z,1.61
2023-02-15T09:00:22.574Z,1.40
2023-02-15T09:01:27.515Z,1.24
2023-02-15T09:02:29.592Z,1.28
2023-02-15T09:03:31.574Z,1.46
2023-02-15T09:04:34.176Z,1.20
2023-02-15T09:05:36.079Z,1.44
2023-02-15T09:06:40.066Z,1.25
2023-02-15T09:07:42.238Z,1.84
2023-02-15T09:08:44.602Z,1.41
2023-02-15T09:09:46.472Z,1.32
2023-02-15T09:10:48.550Z,1.88
2023-02-15T09:11:56.824Z,1.21
2023-02-15T09:12:56.490Z,1.70
2023-02-15T09:14:05.135Z,1.34
2023-02-15T09:15:07.748Z,1.67
2023-02-15T09:16:10.050Z,1.13
2023-02-15T09:17:14.204Z,1.36
2023-02-15T09:18:15.845Z,1.24
2023-02-15T09:19:20.051Z,1.26
2023-02-15T09:20:22.227Z,1.58
2023-02-15T09:21:25.640Z,1.93
2023-02-15T09:22:27.669Z,1.99
2023-02-15T09:23:29.531Z,1.96
2023-02-15T09:24:32.886Z,1.51
2023-02-15T09:25:36.356Z,1.09
2023-02-15T09:26:42.134Z,1.23
2023-02-15T09:27:44.158Z,1.37
2023-02-15T09:28:47.078Z,1.27
2023-02-15T09:29:48.986Z,1.36
2023-02-15T09:30:51.221Z,1.50
2023-02-15T09:31:53.300Z,1.17
2023-02-15T09:32:55.258Z,2.27
2023-02-15T09:33:59.962Z,1.57
2023-02-15T09:35:02.799Z,1.28
2023-02-15T09:36:07.782Z,1.17
2023-02-15T09:37:09.809Z,1.43
2023-02-15T09:38:13.042Z,1.29
2023-02-15T09:39:25.922Z,1.52
2023-02-15T09:40:31.289Z,1.32
2023-02-15T09:41:50.027Z,2.39
2023-02-15T09:43:04.991Z,2.51
2023-02-15T09:44:35.177Z,1.81
2023-02-15T09:45:47.330Z,1.46
2023-02-15T09:47:08.154Z,1.26
2023-02-15T09:48:41.150Z,1.44
2023-02-15T09:52:27.623Z,1.30
2023-02-15T09:53:54.537Z,1.36
2023-02-15T09:55:03.504Z,1.72
2023-02-15T09:56:12.530Z,2.08
2023-02-15T09:57:31.002Z,1.77
2023-02-15T09:58:43.037Z,1.26
2023-02-15T10:00:00.594Z,1.83
2023-02-15T10:01:12.536Z,1.93
2023-02-15T10:02:27.040Z,2.57
2023-02-15T10:03:35.807Z,1.63
2023-02-15T10:05:04.818Z,1.41
2023-02-15T10:06:31.507Z,1.49
2023-02-15T10:07:54.624Z,1.43
2023-02-15T10:09:09.350Z,1.29
2023-02-15T10:13:16.017Z,1.40
2023-02-15T10:14:27.943Z,1.09
2023-02-15T10:15:40.633Z,1.27
2023-02-15T10:17:09.624Z,1.36
2023-02-15T10:18:38.543Z,1.37
2023-02-15T10:19:47.414Z,1.23
2023-02-15T10:23:37.159Z,1.80
2023-02-15T10:24:48.752Z,1.76
2023-02-15T10:26:11.806Z,1.81
2023-02-15T10:27:18.068Z,2.02
2023-02-15T10:28:26.707Z,2.29
2023-02-15T10:29:41.000Z,3.12
2023-02-15T10:30:52.593Z,2.39
2023-02-15T10:32:04.420Z,2.55
2023-02-15T10:33:23.317Z,2.72
2023-02-15T10:34:31.692Z,1.83
2023-02-15T10:35:47.196Z,1.62
2023-02-15T10:37:11.719Z,2.23
2023-02-15T10:38:34.113Z,2.02
2023-02-15T10:39:59.463Z,1.44
2023-02-15T10:41:08.386Z,1.42
2023-02-15T10:42:22.798Z,1.91
2023-02-15T10:43:35.484Z,2.35
2023-02-15T10:44:59.401Z,1.14
2023-02-15T10:46:39.536Z,0.96
2023-02-15T10:47:59.610Z,0.99
2023-02-15T10:49:26.244Z,0.81
2023-02-15T10:50:42.125Z,1.13
2023-02-15T10:52:04.756Z,1.89
2023-02-15T10:53:10.582Z,2.38
2023-02-15T10:54:21.764Z,2.11
2023-02-15T10:55:30.500Z,1.34
2023-02-15T10:56:54.457Z,0.86
2023-02-15T10:58:34.995Z,0.83
2023-02-15T10:59:57.420Z,0.81
2023-02-15T11:01:12.488Z,0.82
2023-02-15T11:04:18.950Z,1.26
2023-02-15T11:05:24.801Z,0.96
2023-02-15T11:06:28.150Z,0.69
2023-02-15T11:07:38.141Z,1.28
2023-02-15T11:08:46.371Z,0.88
2023-02-15T11:09:51.991Z,1.71
2023-02-15T11:11:03.747Z,2.12
2023-02-15T11:12:09.748Z,2.46
2023-02-15T11:13:20.175Z,1.68
2023-02-15T11:14:25.937Z,1.49
2023-02-15T11:15:34.639Z,2.41
2023-02-15T11:16:40.384Z,1.96
2023-02-15T11:17:46.044Z,2.38
2023-02-15T11:18:57.617Z,2.02
2023-02-15T11:21:33.221Z,2.55
2023-02-15T11:22:36.210Z,0.93
2023-02-15T11:23:44.623Z,1.08
2023-02-15T11:24:47.555Z,1.53
2023-02-15T11:26:02.408Z,1.34
2023-02-15T11:27:08.024Z,1.59
2023-02-15T11:28:13.886Z,2.43
2023-02-15T11:29:25.663Z,2.59
2023-02-15T11:30:49.607Z,1.04
2023-02-15T11:31:55.581Z,2.37
2023-02-15T11:33:00.822Z,1.79
2023-02-15T11:34:06.640Z,1.44
2023-02-15T11:35:16.418Z,1.26
2023-02-15T11:36:31.460Z,1.61
2023-02-15T11:37:43.257Z,1.89
2023-02-15T11:38:49.002Z,2.65
2023-02-15T11:39:52.435Z,2.68
2023-02-15T11:43:24.055Z,2.01
2023-02-15T11:44:32.844Z,2.24
2023-02-15T11:45:35.549Z,1.72
2023-02-15T11:46:38.748Z,1.98
2023-02-15T11:47:41.405Z,1.05
2023-02-15T11:48:43.862Z,0.50
2023-02-15T11:49:46.647Z,0.47
2023-02-15T11:50:49.892Z,0.86
2023-02-15T11:51:54.954Z,0.84
2023-02-15T11:53:03.721Z,0.63
2023-02-15T11:54:06.360Z,0.71
2023-02-15T11:55:15.760Z,0.97
2023-02-15T11:56:22.230Z,0.92
2023-02-15T11:57:30.778Z,1.01
2023-02-15T11:59:55.912Z,1.36
2023-02-15T12:01:18.369Z,1.12
2023-02-15T12:02:22.940Z,1.06
2023-02-15T12:03:44.248Z,1.33
2023-02-15T12:04:59.095Z,1.58
2023-02-15T12:06:04.529Z,2.18
2023-02-15T12:07:25.954Z,1.19
2023-02-15T12:08:31.758Z,0.71
2023-02-15T12:09:46.619Z,0.67
2023-02-15T12:11:09.260Z,0.65
2023-02-15T12:12:32.543Z,1.11
2023-02-15T12:13:35.935Z,0.76
2023-02-15T12:14:53.635Z,0.61
2023-02-15T12:15:59.390Z,0.64
2023-02-15T12:17:01.753Z,0.67
2023-02-15T12:18:04.665Z,0.70
2023-02-15T12:19:10.359Z,0.56
2023-02-15T12:20:16.507Z,0.81
2023-02-15T12:21:30.680Z,0.69
2023-02-15T12:22:36.229Z,0.52
2023-02-15T12:23:54.495Z,0.78
2023-02-15T12:25:00.176Z,0.85
2023-02-15T12:26:03.664Z,0.79
2023-02-15T12:27:18.125Z,0.84
2023-02-15T12:28:33.048Z,0.71
2023-02-15T12:29:50.965Z,0.74
2023-02-15T12:30:55.238Z,0.76
2023-02-15T12:31:58.370Z,0.99
2023-02-15T12:33:19.016Z,0.79
2023-02-15T12:34:28.156Z,1.05
2023-02-15T12:35:37.890Z,0.94
2023-02-15T12:36:49.571Z,0.86
2023-02-15T12:39:17.477Z,0.87
2023-02-15T12:41:34.030Z,0.80
2023-02-15T12:42:44.254Z,0.66
2023-02-15T12:43:46.166Z,0.78
2023-02-15T12:45:00.941Z,0.86
2023-02-15T12:46:26.341Z,0.67
2023-02-15T12:47:31.478Z,1.06
2023-02-15T12:48:33.608Z,0.81
2023-02-15T12:49:38.228Z,0.86
2023-02-15T12:50:42.587Z,1.12
2023-02-15T12:51:50.205Z,1.17
2023-02-15T12:52:55.982Z,0.99
2023-02-15T12:53:58.835Z,0.89
2023-02-15T12:55:15.036Z,1.09
2023-02-15T12:56:24.032Z,0.99
2023-02-15T12:57:30.764Z,1.38
2023-02-15T12:58:34.804Z,1.38
2023-02-15T12:59:36.993Z,1.18
2023-02-15T13:00:39.370Z,1.33
2023-02-15T13:01:42.633Z,1.46
2023-02-15T13:02:48.343Z,1.09
2023-02-15T13:04:06.495Z,1.98
2023-02-15T13:05:12.264Z,0.76
2023-02-15T13:06:18.094Z,1.22
2023-02-15T13:07:20.800Z,1.22
2023-02-15T13:08:31.859Z,1.04
2023-02-15T13:09:39.936Z,1.07
2023-02-15T13:10:57.760Z,1.06
2023-02-15T13:12:27.805Z,1.01
2023-02-15T13:13:33.221Z,1.07
2023-02-15T13:14:35.548Z,1.36
2023-02-15T13:15:41.387Z,0.70
2023-02-15T13:16:47.180Z,1.42
2023-02-15T13:17:49.367Z,1.27
2023-02-15T13:18:53.155Z,1.29
2023-02-15T13:19:58.627Z,1.15
2023-02-15T13:21:19.002Z,1.04
2023-02-15T13:22:24.696Z,1.28
2023-02-15T13:23:29.025Z,1.53
2023-02-15T13:24:38.278Z,0.93
2023-02-15T13:28:03.854Z,0.88
2023-02-15T13:31:33.179Z,1.38
2023-02-15T13:32:38.244Z,1.01
2023-02-15T13:33:44.150Z,0.74
2023-02-15T13:34:47.499Z,1.01
2023-02-15T13:36:07.921Z,1.34
2023-02-15T13:37:19.265Z,0.90
2023-02-15T13:38:43.390Z,0.81
2023-02-15T13:40:10.489Z,1.19
2023-02-15T13:41:19.136Z,0.96
2023-02-15T13:42:27.786Z,0.96
2023-02-15T13:43:33.471Z,1.01
2023-02-15T13:45:08.185Z,0.97
2023-02-15T13:46:26.309Z,1.01
2023-02-15T13:47:43.888Z,1.15
2023-02-15T13:49:08.737Z,1.20
2023-02-15T13:50:18.055Z,1.39
2023-02-15T13:51:26.572Z,1.31
2023-02-15T13:52:30.989Z,1.42
2023-02-15T13:53:54.417Z,1.09
2023-02-15T13:55:02.852Z,1.04
2023-02-15T13:56:37.660Z,1.10
2023-02-15T13:57:56.356Z,1.36
2023-02-15T13:59:17.830Z,1.16
2023-02-15T14:00:38.781Z,1.09
2023-02-15T14:01:50.238Z,0.94
2023-02-15T14:04:20.937Z,1.06
2023-02-15T14:05:32.386Z,0.83
2023-02-15T14:06:50.578Z,0.99
2023-02-15T14:08:11.498Z,0.97
2023-02-15T14:09:20.206Z,0.90
2023-02-15T14:10:34.568Z,0.99
2023-02-15T14:12:04.928Z,1.18
2023-02-15T14:13:33.510Z,0.92
2023-02-15T14:14:39.205Z,1.05
2023-02-15T14:16:05.701Z,1.25
2023-02-15T14:17:45.905Z,1.74
2023-02-15T14:20:11.171Z,1.06
2023-02-15T14:21:34.900Z,1.37
2023-02-15T14:22:40.573Z,1.16
2023-02-15T14:23:51.695Z,1.27
2023-02-15T14:25:17.312Z,1.58
2023-02-15T14:26:58.791Z,1.82
2023-02-15T14:28:22.894Z,1.10
2023-02-15T14:29:52.056Z,1.78
2023-02-15T14:30:56.125Z,1.35
2023-02-15T14:32:02.106Z,1.21
2023-02-15T14:33:10.681Z,0.82
2023-02-15T14:34:25.277Z,1.38
2023-02-15T14:35:29.668Z,0.90
2023-02-15T14:36:33.658Z,1.03
2023-02-15T14:38:14.611Z,1.33
2023-02-15T14:39:30.208Z,1.27
2023-02-15T14:40:48.179Z,1.34
2023-02-15T14:41:55.586Z,1.50
2023-02-15T14:43:10.307Z,1.37
2023-02-15T14:44:24.616Z,1.49
2023-02-15T14:45:33.303Z,1.54
2023-02-15T14:46:44.344Z,0.81
2023-02-15T14:47:58.917Z,1.00
2023-02-15T14:49:13.314Z,0.95
2023-02-15T14:50:39.402Z,1.00
2023-02-15T14:51:47.468Z,1.26
2023-02-15T14:53:27.011Z,0.99
2023-02-15T14:54:32.723Z,1.39
2023-02-15T14:55:37.712Z,0.92
2023-02-15T14:56:41.615Z,1.36
2023-02-15T14:57:47.466Z,1.25
2023-02-15T14:58:55.927Z,1.33
2023-02-15T15:00:02.995Z,1.44
2023-02-15T15:01:10.609Z,1.39
2023-02-15T15:02:23.136Z,1.73
2023-02-15T15:03:25.745Z,1.53
2023-02-15T15:04:34.423Z,1.69
2023-02-15T15:05:40.139Z,1.79
2023-02-15T15:06:44.014Z,1.47
2023-02-15T15:07:49.929Z,2.96
2023-02-15T15:08:54.795Z,2.58
2023-02-15T15:10:06.124Z,1.87
2023-02-15T15:11:42.494Z,1.15
2023-02-15T15:12:37.875Z,1.51
2023-02-15T15:13:43.950Z,1.92
2023-02-15T15:14:45.869Z,1.81
2023-02-15T15:15:47.975Z,1.65
2023-02-15T15:16:51.780Z,1.76
2023-02-15T15:18:09.569Z,1.27
2023-02-15T15:19:12.180Z,1.70
2023-02-15T15:20:34.888Z,1.77
2023-02-15T15:21:52.900Z,1.84
2023-02-15T15:24:42.351Z,2.37
2023-02-15T15:25:47.743Z,2.76
2023-02-15T15:26:53.890Z,2.58
2023-02-15T15:27:56.339Z,2.04
2023-02-15T15:29:00.525Z,3.08
2023-02-15T15:30:05.773Z,4.14
2023-02-15T15:31:48.528Z,2.82
2023-02-15T15:33:00.558Z,1.99
2023-02-15T15:34:21.557Z,1.79